sensor_id;sensor_type;location;lat;lon;timestamp;pressure;altitude;pressure_sealevel;temperature;humidity
85643;BME280;76068;52.404;16.862;2024-03-08T00:00:27;101410.34;;;-0.98;85.00
85643;BME280;76068;52.404;16.862;2024-03-08T00:03:13;101407.16;;;-1.04;85.19
85643;BME280;76068;52.404;16.862;2024-03-08T00:05:39;101405.69;;;-1.09;85.86
85643;BME280;76068;52.404;16.862;2024-03-08T00:08:05;101414.06;;;-1.09;84.94
85643;BME280;76068;52.404;16.862;2024-03-08T00:10:34;101408.91;;;-1.10;85.49
85643;BME280;76068;52.404;16.862;2024-03-08T00:13:00;101405.69;;;-1.09;85.16
85643;BME280;76068;52.404;16.862;2024-03-08T00:15:25;101405.34;;;-1.12;85.37
85643;BME280;76068;52.404;16.862;2024-03-08T00:17:51;101398.59;;;-1.13;85.52
85643;BME280;76068;52.404;16.862;2024-03-08T00:20:17;101400.00;;;-1.15;85.61
85643;BME280;76068;52.404;16.862;2024-03-08T00:22:46;101403.22;;;-1.16;85.67
85643;BME280;76068;52.404;16.862;2024-03-08T00:25:12;101401.25;;;-1.12;85.39
85643;BME280;76068;52.404;16.862;2024-03-08T00:27:38;101401.44;;;-1.10;85.31
85643;BME280;76068;52.404;16.862;2024-03-08T00:30:04;101393.63;;;-1.13;85.27
85643;BME280;76068;52.404;16.862;2024-03-08T00:32:31;101401.44;;;-1.17;85.18
85643;BME280;76068;52.404;16.862;2024-03-08T00:34:57;101403.22;;;-1.16;85.50
85643;BME280;76068;52.404;16.862;2024-03-08T00:37:23;101396.81;;;-1.14;85.56
85643;BME280;76068;52.404;16.862;2024-03-08T00:39:49;101402.16;;;-1.18;85.40
85643;BME280;76068;52.404;16.862;2024-03-08T00:42:16;101398.03;;;-1.18;85.60
85643;BME280;76068;52.404;16.862;2024-03-08T00:44:41;101403.91;;;-1.17;85.48
85643;BME280;76068;52.404;16.862;2024-03-08T00:47:07;101395.03;;;-1.15;85.43
85643;BME280;76068;52.404;16.862;2024-03-08T00:49:33;101401.06;;;-1.13;85.35
85643;BME280;76068;52.404;16.862;2024-03-08T00:51:58;101399.66;;;-1.18;85.38
85643;BME280;76068;52.404;16.862;2024-03-08T00:54:24;101396.25;;;-1.26;85.90
85643;BME280;76068;52.404;16.862;2024-03-08T00:56:50;101395.72;;;-1.23;86.00
85643;BME280;76068;52.404;16.862;2024-03-08T00:59:16;101401.09;;;-1.20;86.09
85643;BME280;76068;52.404;16.862;2024-03-08T01:01:41;101390.75;;;-1.23;85.92
85643;BME280;76068;52.404;16.862;2024-03-08T01:04:07;101389.88;;;-1.24;85.55
85643;BME280;76068;52.404;16.862;2024-03-08T01:06:34;101383.13;;;-1.25;86.43
85643;BME280;76068;52.404;16.862;2024-03-08T01:08:59;101384.72;;;-1.25;86.31
85643;BME280;76068;52.404;16.862;2024-03-08T01:11:25;101387.03;;;-1.27;86.07
85643;BME280;76068;52.404;16.862;2024-03-08T01:13:53;101388.59;;;-1.34;85.88
85643;BME280;76068;52.404;16.862;2024-03-08T01:16:19;101379.38;;;-1.35;85.94
85643;BME280;76068;52.404;16.862;2024-03-08T01:18:47;101389.28;;;-1.42;86.64
85643;BME280;76068;52.404;16.862;2024-03-08T01:21:13;101372.63;;;-1.43;86.55
85643;BME280;76068;52.404;16.862;2024-03-08T01:23:38;101377.72;;;-1.49;86.73
85643;BME280;76068;52.404;16.862;2024-03-08T01:26:04;101376.88;;;-1.42;87.02
85643;BME280;76068;52.404;16.862;2024-03-08T01:28:30;101369.75;;;-1.46;87.12
85643;BME280;76068;52.404;16.862;2024-03-08T01:30:56;101369.41;;;-1.49;86.99
85643;BME280;76068;52.404;16.862;2024-03-08T01:33:23;101374.38;;;-1.49;87.33
85643;BME280;76068;52.404;16.862;2024-03-08T01:35:49;101373.31;;;-1.51;87.37
85643;BME280;76068;52.404;16.862;2024-03-08T01:38:15;101368.00;;;-1.47;87.03
85643;BME280;76068;52.404;16.862;2024-03-08T01:40:41;101369.56;;;-1.48;87.61
85643;BME280;76068;52.404;16.862;2024-03-08T01:43:18;101366.41;;;-1.47;87.23
85643;BME280;76068;52.404;16.862;2024-03-08T01:45:44;101365.69;;;-1.46;87.49
85643;BME280;76068;52.404;16.862;2024-03-08T01:48:09;101368.53;;;-1.43;87.24
85643;BME280;76068;52.404;16.862;2024-03-08T01:50:35;101370.47;;;-1.47;87.55
85643;BME280;76068;52.404;16.862;2024-03-08T01:53:03;101364.09;;;-1.45;87.62
85643;BME280;76068;52.404;16.862;2024-03-08T01:55:29;101369.75;;;-1.46;87.40
85643;BME280;76068;52.404;16.862;2024-03-08T01:57:55;101365.69;;;-1.39;87.52
85643;BME280;76068;52.404;16.862;2024-03-08T02:00:21;101357.31;;;-1.46;87.53
85643;BME280;76068;52.404;16.862;2024-03-08T02:02:46;101358.38;;;-1.44;87.56
85643;BME280;76068;52.404;16.862;2024-03-08T02:05:13;101354.84;;;-1.53;87.79
85643;BME280;76068;52.404;16.862;2024-03-08T02:07:41;101349.88;;;-1.53;87.90
85643;BME280;76068;52.404;16.862;2024-03-08T02:10:10;101346.13;;;-1.50;88.19
85643;BME280;76068;52.404;16.862;2024-03-08T02:12:38;101342.41;;;-1.53;87.75
85643;BME280;76068;52.404;16.862;2024-03-08T02:15:04;101340.28;;;-1.57;88.25
85643;BME280;76068;52.404;16.862;2024-03-08T02:17:32;101337.94;;;-1.49;87.93
85643;BME280;76068;52.404;16.862;2024-03-08T02:20:00;101332.97;;;-1.49;87.93
85643;BME280;76068;52.404;16.862;2024-03-08T02:22:30;101331.91;;;-1.51;87.90
85643;BME280;76068;52.404;16.862;2024-03-08T02:24:58;101338.50;;;-1.51;87.71
85643;BME280;76068;52.404;16.862;2024-03-08T02:27:27;101328.91;;;-1.55;88.24
85643;BME280;76068;52.404;16.862;2024-03-08T02:29:57;101331.19;;;-1.57;88.30
85643;BME280;76068;52.404;16.862;2024-03-08T02:32:23;101329.44;;;-1.58;88.12
85643;BME280;76068;52.404;16.862;2024-03-08T02:34:49;101329.44;;;-1.58;88.21
85643;BME280;76068;52.404;16.862;2024-03-08T02:37:15;101332.97;;;-1.63;88.08
85643;BME280;76068;52.404;16.862;2024-03-08T02:39:41;101329.41;;;-1.65;88.22
85643;BME280;76068;52.404;16.862;2024-03-08T02:42:07;101328.53;;;-1.66;88.72
85643;BME280;76068;52.404;16.862;2024-03-08T02:44:33;101324.44;;;-1.65;88.11
85643;BME280;76068;52.404;16.862;2024-03-08T02:46:59;101329.22;;;-1.67;88.78
85643;BME280;76068;52.404;16.862;2024-03-08T02:49:26;101327.81;;;-1.65;88.46
85643;BME280;76068;52.404;16.862;2024-03-08T02:51:54;101327.97;;;-1.77;88.38
85643;BME280;76068;52.404;16.862;2024-03-08T02:54:22;101330.28;;;-1.79;88.55
85643;BME280;76068;52.404;16.862;2024-03-08T02:56:49;101324.94;;;-1.75;88.61
85643;BME280;76068;52.404;16.862;2024-03-08T02:59:18;101319.59;;;-1.78;88.78
85643;BME280;76068;52.404;16.862;2024-03-08T03:01:44;101318.19;;;-1.83;88.68
85643;BME280;76068;52.404;16.862;2024-03-08T03:04:09;101310.75;;;-1.83;88.74
85643;BME280;76068;52.404;16.862;2024-03-08T03:06:35;101318.19;;;-1.83;89.15
85643;BME280;76068;52.404;16.862;2024-03-08T03:09:01;101319.94;;;-1.82;88.62
85643;BME280;76068;52.404;16.862;2024-03-08T03:11:27;101314.44;;;-1.86;88.86
85643;BME280;76068;52.404;16.862;2024-03-08T03:13:53;101316.75;;;-1.88;88.74
85643;BME280;76068;52.404;16.862;2024-03-08T03:16:19;101307.19;;;-1.85;88.96
85643;BME280;76068;52.404;16.862;2024-03-08T03:18:46;101321.16;;;-1.92;88.94
85643;BME280;76068;52.404;16.862;2024-03-08T03:21:12;101319.56;;;-1.92;89.63
85643;BME280;76068;52.404;16.862;2024-03-08T03:23:39;101311.94;;;-1.93;89.21
85643;BME280;76068;52.404;16.862;2024-03-08T03:26:05;101316.91;;;-1.93;89.28
85643;BME280;76068;52.404;16.862;2024-03-08T03:28:33;101320.47;;;-1.91;89.37
85643;BME280;76068;52.404;16.862;2024-03-08T03:30:59;101324.38;;;-1.93;89.66
85643;BME280;76068;52.404;16.862;2024-03-08T03:33:25;101326.34;;;-1.91;89.19
85643;BME280;76068;52.404;16.862;2024-03-08T03:35:50;101323.84;;;-1.91;89.08
85643;BME280;76068;52.404;16.862;2024-03-08T03:44:28;101322.78;;;-1.93;88.91
85643;BME280;76068;52.404;16.862;2024-03-08T03:56:12;101317.97;;;-1.91;89.01
85643;BME280;76068;52.404;16.862;2024-03-08T03:58:38;101318.16;;;-1.90;88.87
85643;BME280;76068;52.404;16.862;2024-03-08T04:01:20;101321.00;;;-1.94;89.02
85643;BME280;76068;52.404;16.862;2024-03-08T04:09:57;101311.22;;;-1.99;88.85
85643;BME280;76068;52.404;16.862;2024-03-08T04:12:23;101310.16;;;-2.01;88.95
85643;BME280;76068;52.404;16.862;2024-03-08T04:14:48;101310.66;;;-2.04;88.92
85643;BME280;76068;52.404;16.862;2024-03-08T04:17:14;101301.75;;;-2.09;89.06
85643;BME280;76068;52.404;16.862;2024-03-08T04:19:40;101303.72;;;-2.06;89.18
85643;BME280;76068;52.404;16.862;2024-03-08T04:22:06;101310.28;;;-2.07;89.46
85643;BME280;76068;52.404;16.862;2024-03-08T04:24:33;101305.31;;;-2.07;89.42
85643;BME280;76068;52.404;16.862;2024-03-08T04:26:59;101308.88;;;-2.12;89.45
85643;BME280;76068;52.404;16.862;2024-03-08T04:29:24;101300.91;;;-2.09;89.40
85643;BME280;76068;52.404;16.862;2024-03-08T04:31:51;101301.25;;;-2.06;89.36
85643;BME280;76068;52.404;16.862;2024-03-08T04:34:22;101293.97;;;-2.12;89.76
85643;BME280;76068;52.404;16.862;2024-03-08T04:36:48;101295.03;;;-2.10;89.47
85643;BME280;76068;52.404;16.862;2024-03-08T04:39:14;101298.88;;;-2.19;89.79
85643;BME280;76068;52.404;16.862;2024-03-08T04:41:42;101298.19;;;-2.18;89.98
85643;BME280;76068;52.404;16.862;2024-03-08T04:44:09;101293.75;;;-2.20;89.94
85643;BME280;76068;52.404;16.862;2024-03-08T04:46:36;101296.06;;;-2.22;89.86
85643;BME280;76068;52.404;16.862;2024-03-08T04:49:01;101292.84;;;-2.21;89.72
85643;BME280;76068;52.404;16.862;2024-03-08T04:51:27;101293.03;;;-2.26;90.09
85643;BME280;76068;52.404;16.862;2024-03-08T04:53:53;101296.56;;;-2.24;90.24
85643;BME280;76068;52.404;16.862;2024-03-08T04:56:19;101287.50;;;-2.31;90.61
85643;BME280;76068;52.404;16.862;2024-03-08T04:58:45;101292.63;;;-2.29;90.34
85643;BME280;76068;52.404;16.862;2024-03-08T05:01:12;101289.25;;;-2.37;90.57
85643;BME280;76068;52.404;16.862;2024-03-08T05:03:38;101289.81;;;-2.32;90.55
85643;BME280;76068;52.404;16.862;2024-03-08T05:06:05;101295.84;;;-2.30;90.57
85643;BME280;76068;52.404;16.862;2024-03-08T05:08:30;101298.16;;;-2.32;90.56
85643;BME280;76068;52.404;16.862;2024-03-08T05:10:56;101294.59;;;-2.27;90.17
85643;BME280;76068;52.404;16.862;2024-03-08T05:13:21;101293.34;;;-2.30;90.31
85643;BME280;76068;52.404;16.862;2024-03-08T05:15:49;101296.34;;;-2.33;90.30
85643;BME280;76068;52.404;16.862;2024-03-08T05:18:15;101291.38;;;-2.33;90.33
85643;BME280;76068;52.404;16.862;2024-03-08T05:20:41;101293.69;;;-2.34;90.15
85643;BME280;76068;52.404;16.862;2024-03-08T05:23:07;101292.44;;;-2.38;90.63
85643;BME280;76068;52.404;16.862;2024-03-08T05:25:33;101295.78;;;-2.37;90.68
85643;BME280;76068;52.404;16.862;2024-03-08T05:27:59;101297.25;;;-2.32;90.42
85643;BME280;76068;52.404;16.862;2024-03-08T05:30:25;101293.53;;;-2.29;90.31
85643;BME280;76068;52.404;16.862;2024-03-08T05:32:50;101291.78;;;-2.30;90.10
85643;BME280;76068;52.404;16.862;2024-03-08T05:35:16;101295.00;;;-2.24;90.17
85643;BME280;76068;52.404;16.862;2024-03-08T05:37:42;101297.81;;;-2.28;89.99
85643;BME280;76068;52.404;16.862;2024-03-08T05:40:08;101299.63;;;-2.20;89.76
85643;BME280;76068;52.404;16.862;2024-03-08T05:42:35;101299.44;;;-2.14;89.87
85643;BME280;76068;52.404;16.862;2024-03-08T05:45:05;101294.66;;;-2.13;89.48
85643;BME280;76068;52.404;16.862;2024-03-08T05:47:35;101301.59;;;-2.10;89.25
85643;BME280;76068;52.404;16.862;2024-03-08T05:50:01;101296.63;;;-2.10;89.44
85643;BME280;76068;52.404;16.862;2024-03-08T05:52:28;101299.16;;;-2.03;89.16
85643;BME280;76068;52.404;16.862;2024-03-08T05:54:54;101293.84;;;-1.99;88.94
85643;BME280;76068;52.404;16.862;2024-03-08T05:57:20;101297.22;;;-1.92;89.00
85643;BME280;76068;52.404;16.862;2024-03-08T05:59:48;101289.75;;;-1.92;88.62
85643;BME280;76068;52.404;16.862;2024-03-08T06:02:14;101303.63;;;-1.87;88.47
85643;BME280;76068;52.404;16.862;2024-03-08T06:04:47;101291.38;;;-1.85;88.36
85643;BME280;76068;52.404;16.862;2024-03-08T06:07:13;101300.06;;;-1.82;88.52
85643;BME280;76068;52.404;16.862;2024-03-08T06:09:39;101302.59;;;-1.75;88.23
85643;BME280;76068;52.404;16.862;2024-03-08T06:12:05;101305.06;;;-1.68;87.88
85643;BME280;76068;52.404;16.862;2024-03-08T06:14:32;101302.97;;;-1.65;87.83
85643;BME280;76068;52.404;16.862;2024-03-08T06:16:57;101301.53;;;-1.63;87.63
85643;BME280;76068;52.404;16.862;2024-03-08T06:19:23;101303.69;;;-1.51;87.51
85643;BME280;76068;52.404;16.862;2024-03-08T06:21:49;101301.94;;;-1.45;86.94
85643;BME280;76068;52.404;16.862;2024-03-08T06:24:14;101293.56;;;-1.46;87.17
85643;BME280;76068;52.404;16.862;2024-03-08T06:26:40;101303.72;;;-1.37;86.24
85643;BME280;76068;52.404;16.862;2024-03-08T06:29:06;101303.91;;;-1.29;86.03
85643;BME280;76068;52.404;16.862;2024-03-08T06:31:32;101300.00;;;-1.27;86.16
85643;BME280;76068;52.404;16.862;2024-03-08T06:33:58;101301.75;;;-1.19;85.51
85643;BME280;76068;52.404;16.862;2024-03-08T06:36:24;101297.66;;;-1.11;85.31
85643;BME280;76068;52.404;16.862;2024-03-08T06:38:50;101301.59;;;-1.06;84.73
85643;BME280;76068;52.404;16.862;2024-03-08T06:41:16;101299.44;;;-1.03;84.43
85643;BME280;76068;52.404;16.862;2024-03-08T06:43:43;101287.34;;;-1.07;85.27
85643;BME280;76068;52.404;16.862;2024-03-08T06:46:10;101292.69;;;-0.90;84.42
85643;BME280;76068;52.404;16.862;2024-03-08T06:48:38;101289.47;;;-0.82;83.98
85643;BME280;76068;52.404;16.862;2024-03-08T06:51:04;101289.09;;;-0.78;84.39
85643;BME280;76068;52.404;16.862;2024-03-08T06:53:31;101290.00;;;-0.77;82.95
85643;BME280;76068;52.404;16.862;2024-03-08T06:55:58;101292.81;;;-0.67;83.30
85643;BME280;76068;52.404;16.862;2024-03-08T06:58:24;101294.25;;;-0.62;83.04
85643;BME280;76068;52.404;16.862;2024-03-08T07:00:50;101296.00;;;-0.54;82.35
85643;BME280;76068;52.404;16.862;2024-03-08T07:03:19;101289.16;;;-0.41;82.44
85643;BME280;76068;52.404;16.862;2024-03-08T07:05:44;101288.63;;;-0.39;82.53
85643;BME280;76068;52.404;16.862;2024-03-08T07:08:10;101286.84;;;-0.33;81.92
85643;BME280;76068;52.404;16.862;2024-03-08T07:10:39;101278.59;;;-0.18;81.59
85643;BME280;76068;52.404;16.862;2024-03-08T07:13:07;101274.84;;;-0.14;81.40
85643;BME280;76068;52.404;16.862;2024-03-08T07:15:33;101284.03;;;-0.06;80.54
85643;BME280;76068;52.404;16.862;2024-03-08T07:17:59;101284.69;;;0.07;80.83
85643;BME280;76068;52.404;16.862;2024-03-08T07:20:25;101278.06;;;0.15;80.21
85643;BME280;76068;52.404;16.862;2024-03-08T07:22:51;101281.94;;;0.27;79.61
85643;BME280;76068;52.404;16.862;2024-03-08T07:25:17;101279.72;;;0.37;78.25
85643;BME280;76068;52.404;16.862;2024-03-08T07:27:55;101285.38;;;0.43;78.67
85643;BME280;76068;52.404;16.862;2024-03-08T07:30:25;101286.94;;;0.49;78.67
85643;BME280;76068;52.404;16.862;2024-03-08T07:33:10;101282.06;;;0.58;77.37
85643;BME280;76068;52.404;16.862;2024-03-08T07:35:39;101275.56;;;0.67;76.95
85643;BME280;76068;52.404;16.862;2024-03-08T07:38:06;101279.22;;;0.77;75.99
85643;BME280;76068;52.404;16.862;2024-03-08T07:40:37;101282.00;;;0.88;76.36
85643;BME280;76068;52.404;16.862;2024-03-08T07:43:10;101271.97;;;0.95;75.54
85643;BME280;76068;52.404;16.862;2024-03-08T07:45:37;101274.06;;;0.99;75.17
85643;BME280;76068;52.404;16.862;2024-03-08T07:48:04;101266.97;;;1.10;73.94
85643;BME280;76068;52.404;16.862;2024-03-08T07:50:36;101265.72;;;1.29;74.37
85643;BME280;76068;52.404;16.862;2024-03-08T07:53:03;101266.53;;;1.52;73.61
85643;BME280;76068;52.404;16.862;2024-03-08T07:55:29;101262.75;;;1.56;74.15
85643;BME280;76068;52.404;16.862;2024-03-08T07:57:57;101266.72;;;1.70;72.18
85643;BME280;76068;52.404;16.862;2024-03-08T08:00:22;101261.03;;;1.79;71.86
85643;BME280;76068;52.404;16.862;2024-03-08T08:02:49;101263.06;;;1.75;71.27
85643;BME280;76068;52.404;16.862;2024-03-08T08:05:15;101265.88;;;1.78;70.88
85643;BME280;76068;52.404;16.862;2024-03-08T08:07:44;101264.47;;;2.04;70.41
85643;BME280;76068;52.404;16.862;2024-03-08T08:10:12;101264.09;;;2.16;70.88
